Time;durP1;ratioP1;P1;durP2;ratioP2;P2;SDS_P1;SDS_P2;PMS_P1;PMS_P2;Temp;Humidity;BMP_temperature;BMP_pressure;BME280_temperature;BME280_humidity;BME280_pressure;Samples;Min_cycle;Max_cycle;Signal;HPM_P1;HPM_P2
2022/06/30 00:01:33;;;;;;;0.90;0.90;;;22.70;62.60;;;;;;5033278;28;20039;-85
2022/06/30 00:03:58;;;;;;;1.58;1.02;;;22.60;62.60;;;;;;5026730;28;20438;-85
2022/06/30 00:06:24;;;;;;;1.15;1.05;;;22.60;62.70;;;;;;5015781;28;20049;-85
2022/06/30 00:08:50;;;;;;;1.38;1.27;;;22.60;62.80;;;;;;5016710;28;20025;-85
2022/06/30 00:11:16;;;;;;;1.45;1.35;;;22.60;62.90;;;;;;5032982;28;20405;-84
2022/06/30 00:13:42;;;;;;;1.73;1.50;;;22.60;63.00;;;;;;5016486;28;20045;-85
2022/06/30 00:16:09;;;;;;;1.35;1.23;;;22.50;63.00;;;;;;5018485;28;20020;-85
2022/06/30 00:18:35;;;;;;;1.95;1.10;;;22.50;63.00;;;;;;5031104;28;20035;-85
2022/06/30 00:21:01;;;;;;;1.40;1.27;;;22.50;63.10;;;;;;5020105;28;20033;-85
2022/06/30 00:23:27;;;;;;;1.33;1.23;;;22.50;63.20;;;;;;5004279;28;20746;-84
2022/06/30 00:25:53;;;;;;;2.30;1.40;;;22.50;63.20;;;;;;5007351;28;20107;-85
2022/06/30 00:28:19;;;;;;;2.03;1.23;;;22.50;63.40;;;;;;5019564;28;20025;-84
2022/06/30 00:30:50;;;;;;;2.25;1.40;;;22.40;63.50;;;;;;5020272;28;20040;-86
2022/06/30 00:33:16;;;;;;;2.00;1.80;;;22.40;63.60;;;;;;5020365;28;20029;-85
2022/06/30 00:35:42;;;;;;;1.77;1.25;;;22.40;63.60;;;;;;5053048;28;20025;-84
2022/06/30 00:38:07;;;;;;;1.48;1.38;;;22.40;63.60;;;;;;5036993;28;20025;-85
2022/06/30 00:40:37;;;;;;;2.55;1.63;;;22.40;63.60;;;;;;5020760;28;20029;-85
2022/06/30 00:43:04;;;;;;;1.42;1.33;;;22.40;63.70;;;;;;5037333;28;20017;-84
2022/06/30 00:45:29;;;;;;;2.15;1.90;;;22.40;63.70;;;;;;5036946;28;20017;-85
2022/06/30 00:47:55;;;;;;;2.13;1.40;;;22.30;63.80;;;;;;5026712;28;20368;-85
2022/06/30 00:50:21;;;;;;;2.10;1.63;;;22.30;63.80;;;;;;5036159;28;20104;-85
2022/06/30 00:52:50;;;;;;;1.48;1.38;;;22.30;64.00;;;;;;5020118;28;20067;-85
2022/06/30 00:55:17;;;;;;;1.48;1.38;;;22.30;64.10;;;;;;5036625;28;20021;-85
2022/06/30 00:57:44;;;;;;;1.48;1.38;;;22.30;64.20;;;;;;5046445;28;20029;-84
2022/06/30 01:00:12;;;;;;;1.35;1.25;;;22.30;64.30;;;;;;5038137;28;20171;-84
2022/06/30 01:02:38;;;;;;;1.10;1.10;;;22.20;64.40;;;;;;5028662;28;20038;-85
2022/06/30 01:05:06;;;;;;;1.50;1.40;;;22.20;64.50;;;;;;5030382;28;20068;-86
2022/06/30 01:07:33;;;;;;;1.80;1.40;;;22.20;64.70;;;;;;5015965;28;20034;-84
2022/06/30 01:12:45;;;;;;;2.03;1.83;;;22.20;64.50;;;;;;5040286;28;20044;-94
2022/06/30 01:15:13;;;;;;;1.45;1.35;;;22.20;64.70;;;;;;5039981;28;20507;-94
2022/06/30 01:17:39;;;;;;;1.55;1.45;;;22.20;64.80;;;;;;5023276;28;20389;-94
2022/06/30 01:20:05;;;;;;;2.83;1.90;;;22.10;64.80;;;;;;5057172;28;20027;-93
2022/06/30 01:22:31;;;;;;;1.60;1.50;;;22.20;65.60;;;;;;5021174;28;20033;-94
2022/06/30 01:24:56;;;;;;;1.45;1.35;;;22.10;64.80;;;;;;5022879;28;20029;-92
2022/06/30 01:27:22;;;;;;;2.25;1.75;;;22.20;65.00;;;;;;5022468;28;20048;-95
2022/06/30 01:29:50;;;;;;;1.77;1.48;;;22.10;65.00;;;;;;5045163;28;20067;-94
2022/06/30 01:32:16;;;;;;;1.90;1.70;;;22.10;65.00;;;;;;5059569;28;20407;-94
2022/06/30 01:34:42;;;;;;;1.65;1.55;;;22.20;64.90;;;;;;5026071;28;20040;-94
2022/06/30 01:37:08;;;;;;;2.15;1.77;;;22.20;64.80;;;;;;5026281;28;20035;-92
2022/06/30 01:39:33;;;;;;;1.70;1.60;;;22.20;64.80;;;;;;5026150;28;20033;-92
2022/06/30 01:42:00;;;;;;;3.45;1.30;;;22.20;64.70;;;;;;5047903;28;20079;-86
2022/06/30 01:44:26;;;;;;;1.83;1.73;;;22.30;64.80;;;;;;5035459;28;20105;-85
2022/06/30 01:46:52;;;;;;;2.08;1.77;;;22.30;64.80;;;;;;5023149;28;20120;-94
2022/06/30 01:49:18;;;;;;;2.47;1.88;;;22.30;64.70;;;;;;5039638;28;20115;-95
2022/06/30 01:51:44;;;;;;;1.50;1.40;;;22.30;64.90;;;;;;5023143;28;20388;-95
2022/06/30 01:54:10;;;;;;;2.97;1.45;;;22.20;64.90;;;;;;5021433;28;20032;-85
2022/06/30 01:56:37;;;;;;;2.08;1.92;;;22.20;64.90;;;;;;5014806;28;20057;-85
2022/06/30 01:59:03;;;;;;;1.92;1.77;;;22.20;64.90;;;;;;5029080;28;20494;-85
2022/06/30 02:01:29;;;;;;;2.97;2.13;;;22.10;65.00;;;;;;5034184;28;20082;-85
2022/06/30 02:03:55;;;;;;;2.78;1.88;;;22.10;65.10;;;;;;5010487;28;20029;-85
2022/06/30 02:06:21;;;;;;;1.80;1.55;;;22.10;65.80;;;;;;5017530;28;20033;-86
2022/06/30 02:08:46;;;;;;;2.13;1.60;;;22.10;65.20;;;;;;5035050;28;20025;-85
2022/06/30 02:11:12;;;;;;;1.77;1.60;;;22.00;65.30;;;;;;5004497;28;20037;-85
2022/06/30 02:13:38;;;;;;;2.60;1.92;;;22.00;65.40;;;;;;5009945;28;20029;-84
2022/06/30 02:16:04;;;;;;;1.85;1.65;;;22.00;65.50;;;;;;5007638;28;20121;-84
2022/06/30 02:18:29;;;;;;;1.80;1.50;;;21.90;65.50;;;;;;5018712;28;20497;-84
2022/06/30 02:20:57;;;;;;;2.20;1.60;;;21.90;65.70;;;;;;5017778;28;20115;-84
2022/06/30 02:23:23;;;;;;;1.55;1.45;;;21.90;65.80;;;;;;5018911;28;20781;-84
2022/06/30 02:25:49;;;;;;;1.92;1.40;;;21.80;66.00;;;;;;5020215;28;20113;-84
2022/06/30 02:28:14;;;;;;;1.75;1.65;;;21.80;66.10;;;;;;5040534;28;20074;-85
2022/06/30 02:30:40;;;;;;;3.05;2.35;;;21.70;66.20;;;;;;5041661;28;20033;-94
2022/06/30 02:33:06;;;;;;;1.98;1.42;;;21.70;66.40;;;;;;5025768;28;20093;-92
2022/06/30 02:35:32;;;;;;;1.67;1.58;;;21.60;66.40;;;;;;5042528;28;20434;-92
2022/06/30 02:37:57;;;;;;;2.95;1.67;;;21.60;66.50;;;;;;5027677;28;20033;-93
2022/06/30 02:40:23;;;;;;;2.08;1.83;;;21.60;66.60;;;;;;5021225;28;20448;-93
2022/06/30 02:42:49;;;;;;;2.50;1.67;;;21.50;66.60;;;;;;5034795;28;20033;-94
2022/06/30 02:45:15;;;;;;;1.77;1.65;;;21.50;66.70;;;;;;5041336;28;20025;-94
2022/06/30 02:47:43;;;;;;;2.40;2.00;;;21.50;67.00;;;;;;5041849;28;20577;-94
2022/06/30 02:50:11;;;;;;;2.53;1.85;;;21.50;67.00;;;;;;5058173;28;20115;-92
2022/06/30 02:52:37;;;;;;;2.53;2.33;;;21.40;67.00;;;;;;5041286;28;20039;-92
2022/06/30 02:55:04;;;;;;;1.88;1.48;;;21.40;67.20;;;;;;5057440;28;20028;-93
2022/06/30 02:57:30;;;;;;;1.27;1.15;;;21.30;67.20;;;;;;5041028;28;20037;-84
2022/06/30 02:59:56;;;;;;;1.60;1.50;;;21.30;67.30;;;;;;5040703;28;20675;-84
2022/06/30 03:02:22;;;;;;;2.15;1.83;;;21.20;67.40;;;;;;5027381;28;20033;-84
2022/06/30 03:04:48;;;;;;;2.42;1.83;;;21.20;67.40;;;;;;5033505;28;20107;-85
2022/06/30 03:07:14;;;;;;;1.98;1.88;;;21.20;67.50;;;;;;5046961;28;20068;-84
2022/06/30 03:09:40;;;;;;;2.55;1.73;;;21.20;67.60;;;;;;5033024;28;20017;-93
2022/06/30 03:12:06;;;;;;;2.90;2.15;;;21.10;67.70;;;;;;5020039;28;20063;-84
2022/06/30 03:14:31;;;;;;;2.63;2.42;;;21.10;67.90;;;;;;5020549;28;20111;-93
2022/06/30 03:16:57;;;;;;;1.85;1.75;;;21.10;67.90;;;;;;5004943;28;20032;-93
2022/06/30 03:19:23;;;;;;;2.88;2.58;;;21.00;67.90;;;;;;5021235;28;20033;-93
2022/06/30 03:21:49;;;;;;;1.70;1.58;;;21.00;68.10;;;;;;5055259;28;20025;-93
2022/06/30 03:24:14;;;;;;;2.08;1.83;;;21.00;68.10;;;;;;5021950;28;20028;-93
2022/06/30 03:26:40;;;;;;;2.33;2.08;;;21.00;68.20;;;;;;5038942;28;20053;-93
2022/06/30 03:29:06;;;;;;;2.17;1.95;;;21.00;68.20;;;;;;5038363;28;20032;-93
2022/06/30 03:31:32;;;;;;;2.70;1.65;;;21.00;68.30;;;;;;5022942;28;20052;-94
2022/06/30 03:33:58;;;;;;;4.20;2.05;;;20.90;68.30;;;;;;5020965;28;20025;-94
2022/06/30 03:36:24;;;;;;;1.90;1.70;;;21.00;68.40;;;;;;5020624;28;20025;-94
2022/06/30 03:38:50;;;;;;;1.60;1.50;;;21.00;68.50;;;;;;5020789;28;20151;-93
2022/06/30 03:41:15;;;;;;;2.88;2.15;;;20.90;68.50;;;;;;5021208;28;20033;-93
2022/06/30 03:43:41;;;;;;;6.22;1.63;;;20.90;68.60;;;;;;5022929;28;20013;-94
2022/06/30 03:46:07;;;;;;;2.38;2.17;;;20.90;68.70;;;;;;5039998;28;20029;-93
2022/06/30 03:48:35;;;;;;;2.63;2.05;;;20.90;68.70;;;;;;5020503;28;20029;-86
2022/06/30 03:51:04;;;;;;;1.98;1.77;;;20.90;68.80;;;;;;4996524;28;20038;-85
2022/06/30 03:53:30;;;;;;;4.75;2.60;;;20.90;68.90;;;;;;4995562;28;20017;-84
2022/06/30 03:55:56;;;;;;;2.75;2.55;;;20.90;69.00;;;;;;5017178;28;20075;-86
2022/06/30 03:58:22;;;;;;;1.98;1.88;;;20.90;69.10;;;;;;4994061;28;20030;-85
2022/06/30 04:00:48;;;;;;;2.80;2.03;;;20.90;69.20;;;;;;4997029;28;20032;-86
2022/06/30 04:03:13;;;;;;;2.58;1.80;;;20.80;69.20;;;;;;4980564;28;20022;-85
2022/06/30 04:05:40;;;;;;;3.70;2.50;;;20.90;69.20;;;;;;4996781;28;20032;-86
2022/06/30 04:08:07;;;;;;;2.47;2.28;;;20.90;69.20;;;;;;4977701;28;20022;-85
2022/06/30 04:10:33;;;;;;;2.85;2.65;;;20.80;69.30;;;;;;4997091;28;20030;-85
2022/06/30 04:12:59;;;;;;;2.58;2.00;;;20.80;69.30;;;;;;4996625;28;20081;-85
2022/06/30 04:15:25;;;;;;;2.22;2.00;;;20.90;69.30;;;;;;5013078;28;20036;-85
2022/06/30 04:17:50;;;;;;;2.60;2.13;;;20.90;69.40;;;;;;5013031;28;20101;-85
2022/06/30 04:20:16;;;;;;;2.83;1.88;;;20.90;69.40;;;;;;5012689;28;20076;-85
2022/06/30 04:22:50;;;;;;;2.60;1.88;;;21.00;69.50;;;;;;4989392;28;20487;-86
2022/06/30 04:25:17;;;;;;;5.35;2.85;;;21.00;69.50;;;;;;5014435;28;20049;-95
2022/06/30 04:27:47;;;;;;;2.63;1.58;;;21.00;69.60;;;;;;5035622;28;20037;-94
2022/06/30 04:30:14;;;;;;;2.33;1.67;;;21.00;69.70;;;;;;5038062;28;20464;-94
2022/06/30 04:32:40;;;;;;;2.13;1.77;;;21.10;69.70;;;;;;5021426;28;20467;-94
2022/06/30 04:35:11;;;;;;;2.10;1.90;;;21.10;69.70;;;;;;5037387;28;20059;-92
2022/06/30 04:37:37;;;;;;;2.83;2.38;;;21.20;69.80;;;;;;5020478;28;20041;-91
2022/06/30 04:42:49;;;;;;;3.40;2.10;;;21.30;69.70;;;;;;5040630;28;20121;-93
2022/06/30 04:45:15;;;;;;;4.05;2.20;;;21.40;69.60;;;;;;5038085;28;20013;-93
2022/06/30 04:47:41;;;;;;;2.90;2.22;;;21.50;69.50;;;;;;5037809;28;20036;-92
2022/06/30 04:50:07;;;;;;;5.47;2.55;;;21.50;69.50;;;;;;5021430;28;20029;-93
2022/06/30 04:52:33;;;;;;;2.88;2.13;;;21.60;69.50;;;;;;5021448;28;20107;-92
2022/06/30 04:54:59;;;;;;;2.40;2.00;;;21.70;69.50;;;;;;5023789;28;20017;-93
2022/06/30 04:57:25;;;;;;;3.50;2.67;;;21.80;69.40;;;;;;5017925;28;20105;-94
2022/06/30 04:59:51;;;;;;;3.40;2.22;;;21.90;69.50;;;;;;5036758;28;20448;-93
2022/06/30 05:02:16;;;;;;;3.33;2.72;;;21.90;69.40;;;;;;5009349;28;20040;-92
2022/06/30 05:04:45;;;;;;;2.95;2.65;;;22.00;69.30;;;;;;5041667;28;20139;-92
2022/06/30 05:07:11;;;;;;;2.80;2.45;;;22.10;69.30;;;;;;5005432;28;20129;-93
2022/06/30 05:09:37;;;;;;;2.78;2.45;;;22.20;69.10;;;;;;5005809;28;20149;-93
2022/06/30 05:12:04;;;;;;;3.20;2.90;;;22.20;69.10;;;;;;5005956;28;20087;-93
2022/06/30 05:14:29;;;;;;;4.30;3.30;;;22.20;68.90;;;;;;5008478;28;20129;-93
2022/06/30 05:16:55;;;;;;;3.70;3.25;;;22.30;68.80;;;;;;5025054;28;20049;-94
2022/06/30 05:19:21;;;;;;;3.08;2.72;;;22.40;68.70;;;;;;5023706;28;20032;-90
2022/06/30 05:21:46;;;;;;;3.95;3.47;;;22.50;68.50;;;;;;5024252;28;20055;-87
2022/06/30 05:26:56;;;;;;;3.35;3.05;;;22.60;68.30;;;;;;5023049;28;20064;-94
2022/06/30 05:29:22;;;;;;;6.55;3.05;;;22.70;68.20;;;;;;5025586;28;20029;-93
2022/06/30 05:31:47;;;;;;;5.88;3.45;;;22.70;68.10;;;;;;5027172;28;20475;-93
2022/06/30 05:34:13;;;;;;;10.25;3.10;;;22.80;68.00;;;;;;5024345;28;20041;-85
2022/06/30 05:36:39;;;;;;;4.05;3.63;;;22.90;68.00;;;;;;5029007;28;20057;-86
2022/06/30 05:39:04;;;;;;;3.40;2.88;;;22.90;67.90;;;;;;5037820;28;20036;-94
2022/06/30 05:41:30;;;;;;;3.35;2.60;;;23.00;67.80;;;;;;5023507;28;20499;-93
2022/06/30 05:43:56;;;;;;;2.95;2.67;;;23.00;67.70;;;;;;5037266;28;20029;-86
2022/06/30 05:46:21;;;;;;;3.25;2.80;;;23.10;67.60;;;;;;5036827;28;20027;-94
2022/06/30 05:48:47;;;;;;;5.10;3.20;;;23.10;67.50;;;;;;5019317;28;20476;-94
2022/06/30 05:51:13;;;;;;;4.95;3.58;;;23.10;67.40;;;;;;5006007;28;20032;-94
2022/06/30 05:53:38;;;;;;;4.07;3.17;;;23.20;67.50;;;;;;5002429;28;20079;-93
2022/06/30 05:56:04;;;;;;;3.35;2.97;;;23.20;67.50;;;;;;5013223;28;20060;-93
2022/06/30 05:58:30;;;;;;;5.13;3.85;;;23.20;67.50;;;;;;5018834;28;20033;-93
2022/06/30 06:00:56;;;;;;;3.63;3.33;;;23.30;67.50;;;;;;5002638;28;20623;-93
2022/06/30 06:03:21;;;;;;;3.78;2.88;;;23.30;67.40;;;;;;5002801;28;20399;-93
2022/06/30 06:05:47;;;;;;;5.45;3.47;;;23.30;67.30;;;;;;5002657;28;20028;-93
2022/06/30 06:08:13;;;;;;;4.68;3.72;;;23.40;67.20;;;;;;5002820;28;20061;-92
2022/06/30 06:10:39;;;;;;;3.47;2.80;;;23.50;67.10;;;;;;5002284;28;20505;-93
2022/06/30 06:13:05;;;;;;;6.00;4.05;;;23.60;67.00;;;;;;5002564;28;20032;-92
2022/06/30 06:15:32;;;;;;;4.15;3.50;;;23.60;66.80;;;;;;5001073;28;20032;-86
2022/06/30 06:17:57;;;;;;;5.00;4.05;;;23.60;66.70;;;;;;5021003;28;20033;-86
2022/06/30 06:20:23;;;;;;;4.43;3.65;;;23.70;66.60;;;;;;5031388;28;20033;-87
2022/06/30 06:22:49;;;;;;;5.30;3.88;;;23.70;66.50;;;;;;5017897;28;20086;-86
2022/06/30 06:25:15;;;;;;;5.95;4.25;;;23.80;66.40;;;;;;5014680;28;20030;-86
2022/06/30 06:27:42;;;;;;;8.75;4.32;;;23.80;66.30;;;;;;5016851;28;20558;-86
2022/06/30 06:30:09;;;;;;;4.72;3.58;;;23.90;66.30;;;;;;5017353;28;20029;-86
2022/06/30 06:32:36;;;;;;;5.35;3.85;;;23.90;66.20;;;;;;5013545;28;20033;-85
2022/06/30 06:35:03;;;;;;;4.97;3.70;;;24.00;66.30;;;;;;5033905;28;20472;-86
2022/06/30 06:37:29;;;;;;;5.10;3.50;;;24.00;66.00;;;;;;5001684;28;20013;-86
2022/06/30 06:39:55;;;;;;;4.72;3.75;;;24.10;65.90;;;;;;5017191;28;20060;-92
2022/06/30 06:42:21;;;;;;;4.18;2.70;;;24.10;65.50;;;;;;5021647;28;20029;-91
2022/06/30 06:44:49;;;;;;;3.33;2.72;;;24.10;65.40;;;;;;5037841;28;20013;-91
2022/06/30 06:47:16;;;;;;;4.60;3.95;;;24.20;65.40;;;;;;5021273;28;20083;-92
2022/06/30 06:49:43;;;;;;;5.60;3.78;;;24.20;65.20;;;;;;5021131;28;20075;-93
2022/06/30 06:52:09;;;;;;;4.07;3.42;;;24.30;65.20;;;;;;5020914;28;20029;-91
2022/06/30 06:54:35;;;;;;;3.97;3.15;;;24.40;65.10;;;;;;5036962;28;20088;-92
2022/06/30 06:57:01;;;;;;;3.67;3.33;;;24.40;64.80;;;;;;5004288;28;20025;-91
2022/06/30 06:59:26;;;;;;;4.50;3.58;;;24.50;64.60;;;;;;5037667;28;20036;-92
2022/06/30 07:01:52;;;;;;;3.15;2.83;;;24.50;64.30;;;;;;5020274;28;20025;-92
2022/06/30 07:04:18;;;;;;;5.70;3.72;;;24.60;64.10;;;;;;5020439;28;20029;-92
2022/06/30 07:06:43;;;;;;;5.55;4.20;;;24.60;63.60;;;;;;5020624;28;20032;-92
2022/06/30 07:09:09;;;;;;;4.35;2.97;;;24.70;63.70;;;;;;5020707;28;20445;-92
2022/06/30 07:11:35;;;;;;;3.13;2.83;;;24.70;63.60;;;;;;5035977;28;20025;-85
2022/06/30 07:14:00;;;;;;;2.67;2.33;;;24.80;63.50;;;;;;5017043;28;20033;-85
2022/06/30 07:16:26;;;;;;;3.42;2.15;;;24.90;62.70;;;;;;5017567;28;20410;-84
2022/06/30 07:18:52;;;;;;;3.85;2.38;;;24.90;60.90;;;;;;5017248;28;20036;-92
2022/06/30 07:21:18;;;;;;;5.68;2.97;;;24.90;60.60;;;;;;5020151;28;20033;-92
2022/06/30 07:23:44;;;;;;;3.55;1.85;;;25.00;60.60;;;;;;5037088;28;20032;-92
2022/06/30 07:26:11;;;;;;;2.08;1.83;;;25.10;60.70;;;;;;5019718;28;20056;-92
2022/06/30 07:28:37;;;;;;;3.13;2.53;;;25.20;60.60;;;;;;5004782;28;20094;-92
2022/06/30 07:31:03;;;;;;;2.95;1.95;;;25.30;60.60;;;;;;5023639;28;20025;-92
2022/06/30 07:33:29;;;;;;;5.50;2.95;;;25.40;60.60;;;;;;5021831;28;20032;-91
2022/06/30 07:35:55;;;;;;;3.90;2.78;;;25.40;60.30;;;;;;5038663;28;20021;-92
2022/06/30 07:38:20;;;;;;;2.47;2.28;;;25.50;60.20;;;;;;5035473;28;20065;-85
2022/06/30 07:40:46;;;;;;;2.65;1.98;;;25.50;60.30;;;;;;5015365;28;20111;-86
2022/06/30 07:43:12;;;;;;;3.28;2.60;;;25.60;60.40;;;;;;5015945;28;20021;-86
2022/06/30 07:45:38;;;;;;;3.75;3.35;;;25.70;60.00;;;;;;5015253;28;20061;-86
2022/06/30 07:48:04;;;;;;;4.57;2.83;;;25.70;59.70;;;;;;5049881;28;20507;-85
2022/06/30 07:50:31;;;;;;;5.30;3.13;;;25.70;59.80;;;;;;5033057;28;20103;-86
2022/06/30 07:52:57;;;;;;;4.35;2.90;;;25.70;59.40;;;;;;4997236;28;20503;-86
2022/06/30 07:55:22;;;;;;;4.45;3.45;;;25.70;59.50;;;;;;4996299;28;20029;-86
2022/06/30 07:57:49;;;;;;;5.40;2.85;;;25.70;58.90;;;;;;5029752;28;20107;-86
2022/06/30 08:00:16;;;;;;;5.28;3.92;;;25.70;59.90;;;;;;5033114;28;20029;-94
2022/06/30 08:02:42;;;;;;;5.53;4.10;;;25.70;59.50;;;;;;5053407;28;20104;-90
2022/06/30 08:05:09;;;;;;;4.07;3.38;;;25.80;59.10;;;;;;5032716;28;20032;-86
2022/06/30 08:07:35;;;;;;;9.43;3.45;;;25.80;59.20;;;;;;5035350;28;20037;-95
2022/06/30 08:10:02;;;;;;;4.85;3.70;;;25.80;59.20;;;;;;5020941;28;20029;-95
2022/06/30 08:12:28;;;;;;;3.92;3.35;;;25.90;59.50;;;;;;5023265;28;20130;-95
2022/06/30 08:14:54;;;;;;;4.85;3.42;;;26.00;58.90;;;;;;5043398;28;20110;-95
2022/06/30 08:17:19;;;;;;;5.38;3.95;;;26.00;58.90;;;;;;5020922;28;20033;-94
2022/06/30 08:19:45;;;;;;;4.60;3.75;;;26.10;59.00;;;;;;5022452;28;20033;-96
2022/06/30 08:22:11;;;;;;;5.68;3.63;;;26.10;58.90;;;;;;5021418;28;20075;-96
2022/06/30 08:24:37;;;;;;;4.57;3.97;;;26.10;58.90;;;;;;5024023;28;20526;-96
2022/06/30 08:27:02;;;;;;;4.35;3.55;;;26.20;58.70;;;;;;5036030;28;20049;-95
2022/06/30 08:29:32;;;;;;;3.90;3.20;;;26.30;58.70;;;;;;5031553;28;20056;-96
2022/06/30 08:31:59;;;;;;;3.72;2.53;;;26.30;58.30;;;;;;5031454;28;20025;-95
2022/06/30 08:34:25;;;;;;;4.82;3.40;;;26.30;58.70;;;;;;5024727;28;20040;-95
2022/06/30 08:36:50;;;;;;;5.18;2.90;;;26.40;58.70;;;;;;5042846;28;20029;-95
2022/06/30 08:42:03;;;;;;;2.85;2.65;;;26.40;58.70;;;;;;5050656;28;20400;-96
2022/06/30 08:44:34;;;;;;;2.95;2.55;;;26.40;58.90;;;;;;5040385;28;20044;-87
2022/06/30 08:47:02;;;;;;;4.73;3.80;;;26.50;59.00;;;;;;5025639;28;20472;-86
2022/06/30 08:49:28;;;;;;;3.58;3.10;;;26.60;59.00;;;;;;5011335;28;20282;-87
2022/06/30 08:51:57;;;;;;;3.45;3.05;;;26.80;58.90;;;;;;5025003;28;20052;-87
2022/06/30 08:54:25;;;;;;;5.50;4.88;;;26.80;58.70;;;;;;5046195;28;20538;-87
2022/06/30 08:56:51;;;;;;;6.60;4.10;;;26.80;58.70;;;;;;5033902;28;20021;-87
2022/06/30 08:59:19;;;;;;;4.20;3.25;;;26.80;58.90;;;;;;5016183;28;20033;-95
2022/06/30 09:01:45;;;;;;;2.38;2.10;;;26.80;59.10;;;;;;5026277;28;20022;-92
2022/06/30 09:04:11;;;;;;;3.95;2.78;;;26.90;59.10;;;;;;5003627;28;20056;-94
2022/06/30 09:06:37;;;;;;;5.40;2.78;;;27.00;58.90;;;;;;5005378;28;20068;-94
2022/06/30 09:09:05;;;;;;;2.60;2.40;;;27.10;58.90;;;;;;5005980;28;20030;-96
2022/06/30 09:11:54;;;;;;;3.10;2.47;;;27.20;58.80;;;;;;5004812;28;20026;-94
2022/06/30 09:14:45;;;;;;;9.10;2.58;;;27.30;58.50;;;;;;5039022;28;20076;-95
2022/06/30 09:17:25;;;;;;;1.70;1.60;;;27.30;58.20;;;;;;5021964;28;20076;-95
2022/06/30 09:22:23;;;;;;;1.48;1.38;;;27.40;56.30;;;;;;5028615;28;20528;-72
2022/06/30 09:25:15;;;;;;;1.67;1.40;;;27.40;56.20;;;;;;5030985;28;20496;-71
2022/06/30 09:27:43;;;;;;;1.73;1.13;;;27.50;55.30;;;;;;5030952;28;20028;-71
2022/06/30 09:30:11;;;;;;;1.42;1.00;;;27.60;55.10;;;;;;4996267;28;20034;-71
2022/06/30 09:32:45;;;;;;;1.10;1.02;;;27.60;54.60;;;;;;5027964;28;20092;-71
2022/06/30 09:35:12;;;;;;;1.67;1.58;;;27.70;54.40;;;;;;4999790;28;20124;-71
2022/06/30 09:37:38;;;;;;;0.88;0.82;;;27.80;53.60;;;;;;5012755;28;20037;-72
2022/06/30 09:40:06;;;;;;;1.05;0.90;;;27.90;53.80;;;;;;5029692;28;20037;-70
2022/06/30 09:42:47;;;;;;;0.90;0.90;;;27.90;53.20;;;;;;5011579;28;20063;-72
2022/06/30 09:45:31;;;;;;;0.85;0.85;;;27.90;52.80;;;;;;5010215;28;20021;-72
2022/06/30 09:47:57;;;;;;;1.88;1.40;;;28.00;52.90;;;;;;5030410;28;20482;-71
2022/06/30 09:50:23;;;;;;;1.67;1.13;;;28.10;52.90;;;;;;5029108;28;20171;-72
2022/06/30 09:53:13;;;;;;;1.10;1.00;;;28.20;52.80;;;;;;5028514;28;20021;-77
2022/06/30 09:55:45;;;;;;;3.15;1.33;;;28.30;52.50;;;;;;5030080;28;20487;-71
2022/06/30 09:58:32;;;;;;;1.27;1.20;;;28.40;52.40;;;;;;5030422;28;20056;-71
2022/06/30 10:00:59;;;;;;;0.77;0.77;;;28.40;52.20;;;;;;5009191;28;20097;-71
2022/06/30 10:03:24;;;;;;;1.50;1.10;;;28.50;52.30;;;;;;5011966;28;20029;-71
2022/06/30 10:06:06;;;;;;;4.03;1.33;;;28.60;52.30;;;;;;5010349;28;20392;-71
2022/06/30 10:08:33;;;;;;;3.17;1.67;;;28.60;51.40;;;;;;5023801;28;20026;-71
2022/06/30 10:11:00;;;;;;;0.85;0.85;;;28.50;50.60;;;;;;5026623;28;20041;-72
2022/06/30 10:13:27;;;;;;;0.70;0.70;;;28.50;51.90;;;;;;5030200;28;20050;-76
2022/06/30 10:15:54;;;;;;;1.20;1.10;;;28.60;51.70;;;;;;5030374;28;20036;-76
2022/06/30 10:18:25;;;;;;;1.58;0.82;;;28.70;51.70;;;;;;5012485;28;20033;-76
2022/06/30 10:20:51;;;;;;;;;;;28.80;51.50;;;;;;5028017;28;20041;-76
2022/06/30 10:23:22;;;;;;;0.90;0.90;;;28.80;51.50;;;;;;5029173;28;19932;-77
2022/06/30 10:25:49;;;;;;;1.25;1.15;;;28.70;50.40;;;;;;5029474;28;20034;-76
2022/06/30 10:28:20;;;;;;;0.82;0.80;;;28.70;49.90;;;;;;5028261;28;20029;-77
2022/06/30 10:30:47;;;;;;;0.80;0.80;;;28.70;49.80;;;;;;5028812;28;20057;-71
2022/06/30 10:33:22;;;;;;;0.40;0.40;;;28.80;50.20;;;;;;5003991;28;20036;-71
2022/06/30 10:35:56;;;;;;;1.50;0.90;;;29.00;50.30;;;;;;5009518;28;20033;-72
2022/06/30 10:38:34;;;;;;;0.70;0.70;;;29.20;49.80;;;;;;5027643;28;20344;-72
2022/06/30 10:41:15;;;;;;;0.85;0.85;;;29.40;49.90;;;;;;5027859;28;20029;-71
2022/06/30 10:44:22;;;;;;;2.20;1.23;;;29.40;49.30;;;;;;5028602;28;20029;-71
2022/06/30 10:46:48;;;;;;;3.17;1.00;;;29.50;48.40;;;;;;4966384;28;20121;-71
2022/06/30 10:49:13;;;;;;;3.25;0.77;;;29.50;48.80;;;;;;5018847;28;20488;-71
2022/06/30 10:51:40;;;;;;;1.30;0.77;;;29.60;48.60;;;;;;5027490;28;20053;-70
2022/06/30 10:54:07;;;;;;;0.82;0.70;;;29.70;48.90;;;;;;5010985;28;20033;-71
2022/06/30 10:56:53;;;;;;;1.60;0.90;;;29.90;49.00;;;;;;5028414;28;20593;-76
2022/06/30 10:59:34;;;;;;;2.58;0.80;;;29.90;49.10;;;;;;5024717;28;20037;-71
2022/06/30 11:02:14;;;;;;;0.85;0.80;;;30.00;49.00;;;;;;5005409;28;20056;-76
2022/06/30 11:04:41;;;;;;;0.70;0.70;;;30.10;48.70;;;;;;5009096;28;20056;-77
2022/06/30 11:07:11;;;;;;;0.80;0.80;;;30.20;48.80;;;;;;5014106;28;20041;-76
2022/06/30 11:09:54;;;;;;;0.80;0.80;;;30.40;48.80;;;;;;5022662;28;20484;-71
2022/06/30 11:12:25;;;;;;;1.17;0.60;;;30.50;48.80;;;;;;5002551;28;20029;-71
2022/06/30 11:14:55;;;;;;;0.80;0.80;;;30.70;48.80;;;;;;5010259;28;20379;-71
2022/06/30 11:17:30;;;;;;;0.83;0.70;;;30.80;47.80;;;;;;5017017;28;20033;-71
2022/06/30 11:20:03;;;;;;;0.73;0.73;;;30.80;47.70;;;;;;5008823;28;20115;-71
2022/06/30 11:22:29;;;;;;;0.80;0.80;;;30.80;47.50;;;;;;5001573;28;20037;-72
2022/06/30 11:24:58;;;;;;;1.58;0.82;;;30.90;46.60;;;;;;5003754;28;20030;-71
2022/06/30 11:27:28;;;;;;;0.60;0.60;;;30.90;47.00;;;;;;5027622;28;20232;-70
2022/06/30 11:29:59;;;;;;;0.70;0.70;;;31.00;47.30;;;;;;5025155;28;20116;-71
2022/06/30 11:32:25;;;;;;;2.57;1.20;;;31.10;47.30;;;;;;5016507;28;20103;-72
2022/06/30 11:34:52;;;;;;;0.80;0.80;;;31.20;47.30;;;;;;5019029;28;20058;-76
2022/06/30 11:37:29;;;;;;;1.05;1.02;;;31.20;47.20;;;;;;5015458;28;20033;-77
2022/06/30 11:40:05;;;;;;;0.60;0.60;;;31.20;47.10;;;;;;5018460;28;20040;-76
2022/06/30 11:42:32;;;;;;;2.50;1.05;;;31.20;47.20;;;;;;5019271;28;20084;-76
2022/06/30 11:44:58;;;;;;;1.42;0.90;;;31.10;47.00;;;;;;5021753;28;20036;-76
2022/06/30 11:47:24;;;;;;;1.35;1.20;;;31.20;46.80;;;;;;5020700;28;20423;-77
2022/06/30 11:49:55;;;;;;;0.70;0.70;;;31.20;46.10;;;;;;5026725;28;20032;-77
2022/06/30 11:52:24;;;;;;;2.13;1.38;;;31.20;46.10;;;;;;5005423;28;20029;-77
2022/06/30 11:54:58;;;;;;;1.05;0.85;;;31.20;45.90;;;;;;5023295;28;21291;-77
2022/06/30 11:57:26;;;;;;;0.60;0.60;;;31.20;46.10;;;;;;5025214;28;20529;-77
2022/06/30 12:00:04;;;;;;;0.60;0.60;;;31.30;46.20;;;;;;5024742;28;20527;-78
2022/06/30 12:02:32;;;;;;;0.60;0.60;;;31.50;45.70;;;;;;5020799;28;20026;-76
2022/06/30 12:04:59;;;;;;;2.33;0.82;;;31.70;45.90;;;;;;5027019;28;20060;-77
2022/06/30 12:07:27;;;;;;;1.08;0.90;;;31.90;45.20;;;;;;5008239;28;20034;-76
2022/06/30 12:09:54;;;;;;;0.95;0.90;;;32.00;45.30;;;;;;5009723;28;20724;-77
2022/06/30 12:12:26;;;;;;;1.10;1.00;;;32.10;45.20;;;;;;5025505;28;20033;-76
2022/06/30 12:14:54;;;;;;;1.38;1.00;;;32.10;45.40;;;;;;5006911;28;20041;-77
2022/06/30 12:17:20;;;;;;;1.40;0.90;;;32.00;45.40;;;;;;5025001;28;20034;-76
2022/06/30 12:19:46;;;;;;;1.13;1.02;;;32.10;45.40;;;;;;5025076;28;20040;-76
2022/06/30 12:22:13;;;;;;;2.88;0.90;;;32.00;45.30;;;;;;5025108;28;20084;-75
2022/06/30 12:24:40;;;;;;;1.65;1.00;;;31.80;45.30;;;;;;5023941;28;20033;-77
2022/06/30 12:27:07;;;;;;;0.88;0.88;;;31.60;45.90;;;;;;5026344;28;20029;-76
2022/06/30 12:29:33;;;;;;;3.17;1.10;;;31.60;45.80;;;;;;5022689;28;20041;-77
2022/06/30 12:32:07;;;;;;;1.50;0.73;;;31.70;45.70;;;;;;5007199;28;20026;-77
2022/06/30 12:34:52;;;;;;;1.17;0.73;;;31.90;45.70;;;;;;5008356;28;20488;-73
2022/06/30 12:37:29;;;;;;;2.05;0.70;;;32.10;45.30;;;;;;5026262;28;20472;-74
2022/06/30 12:39:58;;;;;;;0.85;0.60;;;32.50;45.20;;;;;;5028183;28;20061;-73
2022/06/30 12:42:24;;;;;;;0.88;0.88;;;32.70;44.80;;;;;;5028132;28;20424;-73
2022/06/30 12:44:50;;;;;;;0.63;0.60;;;32.70;44.60;;;;;;5032148;28;20021;-73
2022/06/30 12:47:16;;;;;;;1.00;0.80;;;32.90;44.50;;;;;;5028667;28;20488;-73
2022/06/30 12:49:41;;;;;;;2.70;0.93;;;33.10;44.40;;;;;;5026819;28;20041;-73
2022/06/30 12:52:19;;;;;;;0.70;0.70;;;33.30;44.20;;;;;;5025763;28;20036;-74
2022/06/30 12:54:55;;;;;;;0.77;0.70;;;33.40;44.10;;;;;;5023994;28;20033;-68
2022/06/30 12:57:22;;;;;;;0.70;0.70;;;33.50;43.20;;;;;;5022895;28;20036;-69
2022/06/30 12:59:51;;;;;;;6.07;0.98;;;33.60;43.20;;;;;;5007247;28;20484;-70
2022/06/30 13:02:18;;;;;;;1.20;1.10;;;33.50;43.20;;;;;;5025821;28;20415;-69
2022/06/30 13:04:52;;;;;;;1.00;0.82;;;33.60;43.10;;;;;;5026161;28;20086;-68